Impacts METAR Board INFO
IDs:

KORD - Chicago/O'Hare Intl, IL, US

Updated at: 0654 UTC 19 Nov 2017
Potential Impact None Slight Moderate High
Time18/18Z 18/19Z 18/20Z 18/21Z 18/22Z 18/23Z 19/00Z 19/01Z 19/02Z 19/03Z 19/04Z 19/05Z 19/06Z
VIS5 4 8 10 10 10 10 10 10 10 10 10 10
CIG9 8 11 12 15 16 25 27 30 30 32 33 29
CoverOVCOVCOVCOVCOVCOVCOVCOVCOVCOVCOVCOVCOVC
FltCatIFRIFRMVFRMVFRMVFRMVFRMVFRMVFRMVFRMVFRVFRVFRMVFR
WX-RA BR-RA -SN BR-RA--------------------
WDir350330330350350340340340330320320320330
WSpd14 14 21 16 17 16 22 17 20 14 21 11 17
WGst22 -- 28 24 24 20 28 24 25 -- 24 -- 25
Raw hourly METARs
KORD 181751Z 35014G22KT 5SM -RA BR BKN009 OVC011 03/01 A2947 RMK AO2 SLP982 P0006 60036 T00280011 10067 20028 55004
KORD 181851Z 33014KT 4SM -RASN BR OVC008 02/00 A2950 RMK AO2 SNB1758 SLP993 P0008 T00170000
KORD 181959Z 33021G28KT 8SM -RA OVC011 03/02 A2952 RMK AO2 PK WND 33028/1958 SNE58 P0000 T00330017
KORD 182051Z 35016G24KT 10SM OVC012 04/02 A2953 RMK AO2 PK WND 35030/2034 RAE25SNE1958 SLP002 P0000 60015 T00390017 51020
KORD 182151Z 35017G24KT 10SM OVC015 04/01 A2957 RMK AO2 PK WND 35028/2108 SLP017 T00440011
KORD 182251Z 34016G20KT 10SM BKN016 OVC022 04/01 A2961 RMK AO2 SLP031 T00440006
KORD 182351Z 34022G28KT 10SM SCT019 OVC025 04/M01 A2966 RMK AO2 PK WND 32032/2332 SLP049 60015 T00441011 10044 20017 53045
KORD 190051Z 34017G24KT 10SM OVC027 04/M01 A2970 RMK AO2 PK WND 34031/0008 SLP061 T00391011
KORD 190204Z 33020G25KT 10SM SCT026 BKN030 OVC035 04/M02 A2973 RMK AO2 T00391017
KORD 190251Z 32014KT 10SM SCT026 BKN030 OVC035 04/M01 A2975 RMK AO2 SLP079 T00391011 51030
KORD 190351Z 32021G24KT 10SM OVC032 04/M02 A2979 RMK AO2 PK WND 34029/0315 SLP092 T00391022
KORD 190451Z 32011KT 10SM OVC033 03/M02 A2982 RMK AO2 PK WND 34028/0402 SLP102 T00331017
KORD 190551Z 33017G25KT 10SM OVC029 03/M03 A2984 RMK AO2 SLP110 T00331033 10044 20033 400890017 51029